createdAt,value
2016-12-28T00:00:12.689Z,7.03
2016-12-28T00:01:27.127Z,7.02
2016-12-28T00:02:41.489Z,7
2016-12-28T00:03:56.097Z,7.01
2016-12-28T00:05:10.524Z,7.04
2016-12-28T00:06:26.225Z,7.05
2016-12-28T00:07:40.953Z,7.08
2016-12-28T00:08:56.436Z,7.09
2016-12-28T00:10:10.662Z,7.1
2016-12-28T00:11:24.865Z,7.12
2016-12-28T00:12:40.642Z,7.12
2016-12-28T00:13:56.136Z,7.1
2016-12-28T00:15:11.414Z,7.11
2016-12-28T00:16:26.053Z,7.13
2016-12-28T00:17:40.936Z,7.15
2016-12-28T00:18:55.768Z,7.18
2016-12-28T00:20:11.294Z,7.19
2016-12-28T00:21:26.035Z,7.23
2016-12-28T00:22:40.757Z,7.25
2016-12-28T00:23:55.768Z,7.29
2016-12-28T00:25:25.757Z,7.36
2016-12-28T00:26:40.448Z,7.39
2016-12-28T00:27:55.132Z,7.42
2016-12-28T00:29:10.885Z,7.44
2016-12-28T00:30:26.869Z,7.46
2016-12-28T00:31:41.141Z,7.5
2016-12-28T00:32:56.214Z,7.51
2016-12-28T00:34:12.092Z,7.53
2016-12-28T00:35:27.781Z,7.56
2016-12-28T00:36:42.466Z,7.57
2016-12-28T00:37:57.633Z,7.59
2016-12-28T00:39:12.285Z,7.63
2016-12-28T00:40:26.689Z,7.66
2016-12-28T00:41:41.604Z,7.68
2016-12-28T00:42:56.235Z,7.68
2016-12-28T00:44:11.043Z,7.66
2016-12-28T00:45:27.082Z,7.66
2016-12-28T00:46:42.033Z,7.68
2016-12-28T00:47:57.284Z,7.66
2016-12-28T00:49:12.090Z,7.67
2016-12-28T00:50:26.809Z,7.68
2016-12-28T00:51:41.295Z,7.7
2016-12-28T00:52:55.533Z,7.7
2016-12-28T00:54:10.427Z,7.69
2016-12-28T00:55:25.531Z,7.66
2016-12-28T00:56:40.251Z,7.67
2016-12-28T00:57:55.179Z,7.65
2016-12-28T00:59:09.351Z,7.65
2016-12-28T01:00:23.835Z,7.64
2016-12-28T01:01:39.915Z,7.63
2016-12-28T01:02:54.574Z,7.65
2016-12-28T01:04:09.740Z,7.68
2016-12-28T01:05:24.571Z,7.69
2016-12-28T01:06:39.188Z,7.71
2016-12-28T01:07:53.991Z,7.71
2016-12-28T01:09:08.676Z,7.7
2016-12-28T01:10:23.110Z,7.69
2016-12-28T01:11:37.353Z,7.71
2016-12-28T01:12:52.266Z,7.73
2016-12-28T01:14:06.711Z,7.73
2016-12-28T01:15:21.294Z,7.73
2016-12-28T01:16:35.961Z,7.67
2016-12-28T01:17:52.884Z,7.61
2016-12-28T01:19:06.939Z,7.55
2016-12-28T01:20:21.795Z,7.49
2016-12-28T01:21:36.874Z,7.46
2016-12-28T01:22:51.713Z,7.44
2016-12-28T01:24:05.758Z,7.41
2016-12-28T01:25:20.248Z,7.4
2016-12-28T01:26:35.991Z,7.4
2016-12-28T01:27:51.041Z,7.41
2016-12-28T01:29:05.339Z,7.46
2016-12-28T01:30:19.431Z,7.49
2016-12-28T01:31:33.534Z,7.55
2016-12-28T01:32:48.434Z,7.6
2016-12-28T01:34:03.391Z,7.63
2016-12-28T01:35:18.708Z,7.66
2016-12-28T01:36:32.869Z,7.68
2016-12-28T01:37:47.350Z,7.72
2016-12-28T01:39:01.896Z,7.74
2016-12-28T01:40:17.052Z,7.78
2016-12-28T01:41:31.417Z,7.82
2016-12-28T01:44:15.680Z,7.9
2016-12-28T01:45:30.421Z,7.93
2016-12-28T01:46:45.183Z,7.98
2016-12-28T01:47:59.553Z,8
2016-12-28T01:49:14.425Z,8
2016-12-28T01:50:29.144Z,7.98
2016-12-28T01:51:43.558Z,7.95
2016-12-28T01:52:58.381Z,7.91
2016-12-28T01:54:13.121Z,7.86
2016-12-28T01:55:28.437Z,7.83
2016-12-28T01:56:42.921Z,7.82
2016-12-28T01:57:57.066Z,7.8
2016-12-28T01:59:11.973Z,7.78
2016-12-28T02:00:27.165Z,7.77
2016-12-28T02:01:41.679Z,7.74
2016-12-28T02:02:56.586Z,7.74
2016-12-28T02:04:11.658Z,7.7
2016-12-28T02:05:26.251Z,7.66
2016-12-28T02:06:40.347Z,7.65
2016-12-28T02:07:54.396Z,7.64
2016-12-28T02:09:08.433Z,7.66
2016-12-28T02:10:22.820Z,7.67
2016-12-28T02:11:37.438Z,7.65
2016-12-28T02:12:51.733Z,7.66
2016-12-28T02:14:05.769Z,7.65
2016-12-28T02:15:19.893Z,7.63
2016-12-28T02:16:34.039Z,7.61
2016-12-28T02:17:48.884Z,7.58
2016-12-28T02:19:03.013Z,7.59
2016-12-28T02:20:17.322Z,7.6
2016-12-28T02:21:31.423Z,7.6
2016-12-28T02:22:46.818Z,7.58
2016-12-28T02:24:01.669Z,7.58
2016-12-28T02:25:16.330Z,7.58
2016-12-28T02:26:30.859Z,7.59
2016-12-28T02:27:45.522Z,7.6
2016-12-28T02:29:00.637Z,7.6
2016-12-28T02:30:14.958Z,7.6
2016-12-28T02:31:29.537Z,7.63
2016-12-28T02:32:43.861Z,7.64
2016-12-28T02:33:58.328Z,7.64
2016-12-28T02:35:14.691Z,7.63
2016-12-28T02:36:29.725Z,7.63
2016-12-28T02:37:44.117Z,7.64
2016-12-28T02:38:58.664Z,7.62
2016-12-28T02:40:13.189Z,7.6
2016-12-28T02:41:27.238Z,7.62
2016-12-28T02:42:41.613Z,7.64
2016-12-28T02:43:56.203Z,7.64
2016-12-28T02:45:11.211Z,7.66
2016-12-28T02:46:25.665Z,7.67
2016-12-28T02:47:39.815Z,7.69
2016-12-28T02:48:54.099Z,7.72
2016-12-28T02:50:08.206Z,7.72
2016-12-28T02:51:22.502Z,7.71
2016-12-28T02:52:37.336Z,7.72
2016-12-28T02:53:51.794Z,7.72
2016-12-28T02:55:06.237Z,7.72
2016-12-28T02:56:20.520Z,7.72
2016-12-28T02:57:34.604Z,7.69
2016-12-28T02:58:48.944Z,7.68
2016-12-28T03:00:02.995Z,7.67
2016-12-28T03:01:17.768Z,7.68
2016-12-28T03:02:32.809Z,7.68
2016-12-28T03:03:46.901Z,7.69
2016-12-28T03:05:00.932Z,7.7
2016-12-28T03:06:15.419Z,7.7
2016-12-28T03:07:30.033Z,7.68
2016-12-28T03:08:44.352Z,7.66
2016-12-28T03:09:58.753Z,7.63
2016-12-28T03:11:12.845Z,7.59
2016-12-28T03:12:27.531Z,7.57
2016-12-28T03:13:41.873Z,7.56
2016-12-28T03:14:56.219Z,7.53
2016-12-28T03:16:10.439Z,7.53
2016-12-28T03:17:24.967Z,7.52
2016-12-28T03:18:39.333Z,7.52
2016-12-28T03:19:54.078Z,7.53
2016-12-28T03:21:08.692Z,7.54
2016-12-28T03:22:22.798Z,7.54
2016-12-28T03:23:51.597Z,7.57
2016-12-28T03:25:06.353Z,7.56
2016-12-28T03:26:20.823Z,7.55
2016-12-28T03:27:35.938Z,7.52
2016-12-28T03:28:49.988Z,7.5
2016-12-28T03:30:04.287Z,7.49
2016-12-28T03:31:19.055Z,7.47
2016-12-28T03:32:33.477Z,7.47
2016-12-28T03:33:47.795Z,7.47
2016-12-28T03:35:01.966Z,7.46
2016-12-28T03:36:16.613Z,7.46
2016-12-28T03:37:31.092Z,7.45
2016-12-28T03:38:45.205Z,7.45
2016-12-28T03:39:59.489Z,7.45
2016-12-28T03:41:13.898Z,7.44
2016-12-28T03:42:28.038Z,7.44
2016-12-28T03:43:42.635Z,7.44
2016-12-28T03:44:56.826Z,7.44
2016-12-28T03:46:11.181Z,7.44
2016-12-28T03:47:25.273Z,7.41
2016-12-28T03:48:39.321Z,7.36
2016-12-28T03:49:53.668Z,7.33
2016-12-28T03:51:08.056Z,7.32
2016-12-28T03:52:24.748Z,7.29
2016-12-28T03:53:39.140Z,7.27
2016-12-28T03:54:53.481Z,7.25
2016-12-28T03:56:07.799Z,7.21
2016-12-28T03:57:22.229Z,7.19
2016-12-28T03:58:36.757Z,7.18
2016-12-28T03:59:51.192Z,7.18
2016-12-28T04:01:05.317Z,7.19
2016-12-28T04:02:20.251Z,7.19
2016-12-28T04:03:35.190Z,7.2
2016-12-28T04:04:49.387Z,7.2
2016-12-28T04:06:03.871Z,7.21
2016-12-28T04:07:18.343Z,7.22
2016-12-28T04:08:33.070Z,7.27
2016-12-28T04:09:47.904Z,7.31
2016-12-28T04:11:16.992Z,7.36
2016-12-28T04:12:31.037Z,7.41
2016-12-28T04:13:46.113Z,7.49
2016-12-28T04:15:00.305Z,7.52
2016-12-28T04:16:14.771Z,7.55
2016-12-28T04:17:44.191Z,7.58
2016-12-28T04:18:58.466Z,7.6
2016-12-28T04:20:12.835Z,7.62
2016-12-28T04:21:27.236Z,7.65
2016-12-28T04:22:41.982Z,7.65
2016-12-28T04:23:56.033Z,7.68
2016-12-28T04:25:10.431Z,7.72
2016-12-28T04:26:25.064Z,7.76
2016-12-28T04:27:39.162Z,7.81
2016-12-28T04:28:53.604Z,7.84
2016-12-28T04:30:07.717Z,7.88
2016-12-28T04:31:23.105Z,7.92
2016-12-28T04:32:37.792Z,7.94
2016-12-28T04:33:51.840Z,7.95
2016-12-28T04:35:06.370Z,7.97
2016-12-28T04:36:20.450Z,7.98
2016-12-28T04:37:34.605Z,8
2016-12-28T04:38:49.022Z,8.02
2016-12-28T04:40:03.088Z,8.04
2016-12-28T04:41:17.175Z,8.07
2016-12-28T04:42:31.541Z,8.1
2016-12-28T04:43:46.543Z,8.12
2016-12-28T04:45:01.377Z,8.14
2016-12-28T04:46:17.206Z,8.15
2016-12-28T04:47:31.413Z,8.15
2016-12-28T04:48:45.923Z,8.13
2016-12-28T04:50:00.711Z,8.14
2016-12-28T04:51:14.818Z,8.15
2016-12-28T04:52:29.568Z,8.15
2016-12-28T04:53:43.760Z,8.16
2016-12-28T04:54:58.545Z,8.18
2016-12-28T04:56:13.092Z,8.2
2016-12-28T04:57:27.277Z,8.21
2016-12-28T04:58:41.726Z,8.23
2016-12-28T04:59:56.562Z,8.24
2016-12-28T05:01:11.770Z,8.25
2016-12-28T05:02:26.554Z,8.25
2016-12-28T05:03:40.840Z,8.28
2016-12-28T05:04:56.194Z,8.3
2016-12-28T05:06:10.417Z,8.33
2016-12-28T05:07:24.694Z,8.34
2016-12-28T05:08:39.098Z,8.35
2016-12-28T05:09:55.978Z,8.35
2016-12-28T05:11:10.385Z,8.37
2016-12-28T05:12:24.582Z,8.36
2016-12-28T05:13:38.763Z,8.35
2016-12-28T05:14:53.465Z,8.34
2016-12-28T05:16:08.024Z,8.34
2016-12-28T05:17:22.436Z,8.35
2016-12-28T05:18:36.482Z,8.37
2016-12-28T05:19:50.955Z,8.4
2016-12-28T05:21:05.279Z,8.4
2016-12-28T05:22:19.367Z,8.4
2016-12-28T05:23:34.746Z,8.4
2016-12-28T05:24:49.210Z,8.42
2016-12-28T05:26:03.808Z,8.45
2016-12-28T05:27:18.230Z,8.46
2016-12-28T05:28:32.354Z,8.48
2016-12-28T05:29:46.490Z,8.51
2016-12-28T05:31:00.821Z,8.52
2016-12-28T05:32:14.951Z,8.54
2016-12-28T05:33:29.651Z,8.56
2016-12-28T05:34:43.749Z,8.57
2016-12-28T05:35:58.483Z,8.59
2016-12-28T05:37:12.781Z,8.59
2016-12-28T05:38:26.888Z,8.55
2016-12-28T05:39:41.486Z,8.52
2016-12-28T05:40:55.594Z,8.47
2016-12-28T05:42:09.804Z,8.42
2016-12-28T05:43:23.893Z,8.37
2016-12-28T05:44:38.649Z,8.36
2016-12-28T05:45:53.747Z,8.34
2016-12-28T05:47:07.847Z,8.34
2016-12-28T05:48:22.138Z,8.35
2016-12-28T05:49:36.831Z,8.35
2016-12-28T05:50:52.304Z,8.35
2016-12-28T05:52:06.755Z,8.37
2016-12-28T05:53:20.965Z,8.38
2016-12-28T05:54:35.603Z,8.39
2016-12-28T05:55:50.785Z,8.39
2016-12-28T05:57:05.433Z,8.38
2016-12-28T05:58:20.594Z,8.36
2016-12-28T05:59:34.934Z,8.34
2016-12-28T06:00:48.974Z,8.34
2016-12-28T06:02:03.571Z,8.34
2016-12-28T06:03:18.408Z,8.34
2016-12-28T06:04:32.850Z,8.35
2016-12-28T06:05:47.014Z,8.35
2016-12-28T06:07:01.190Z,8.37
2016-12-28T06:08:15.365Z,8.36
2016-12-28T06:09:30.026Z,8.37
2016-12-28T06:10:44.439Z,8.37
2016-12-28T06:11:58.589Z,8.38
2016-12-28T06:13:12.760Z,8.38
2016-12-28T06:14:26.804Z,8.39
2016-12-28T06:15:41.414Z,8.36
2016-12-28T06:16:56.130Z,8.36
2016-12-28T06:18:10.348Z,8.32
2016-12-28T06:19:24.795Z,8.28
2016-12-28T06:20:39.235Z,8.23
2016-12-28T06:21:53.598Z,8.16
2016-12-28T06:23:08.237Z,8.11
2016-12-28T06:24:22.531Z,8.05
2016-12-28T06:25:38.257Z,8.01
2016-12-28T06:26:59.239Z,7.97
2016-12-28T06:28:17.392Z,7.95
2016-12-28T06:29:35.031Z,7.93
2016-12-28T06:30:54.068Z,7.88
2016-12-28T06:32:12.464Z,7.81
2016-12-28T06:33:32.660Z,7.75
2016-12-28T06:34:48.086Z,7.73
2016-12-28T06:36:02.192Z,7.71
2016-12-28T06:37:16.857Z,7.7
2016-12-28T06:38:31.608Z,7.7
2016-12-28T06:39:45.779Z,7.7
2016-12-28T06:41:00.502Z,7.71
2016-12-28T06:42:15.054Z,7.72
2016-12-28T06:43:29.543Z,7.75
2016-12-28T06:44:44.796Z,7.79
2016-12-28T06:45:58.954Z,7.81
2016-12-28T06:47:13.735Z,7.84
2016-12-28T06:48:28.092Z,7.86
2016-12-28T06:49:42.215Z,7.89
2016-12-28T06:50:56.307Z,7.89
2016-12-28T06:52:10.413Z,7.91
2016-12-28T06:53:25.242Z,7.93
2016-12-28T06:54:39.872Z,7.92
2016-12-28T06:55:54.290Z,7.89
2016-12-28T06:57:08.350Z,7.86
2016-12-28T06:58:22.453Z,7.83
2016-12-28T06:59:36.858Z,7.81
2016-12-28T07:00:51.463Z,7.81
2016-12-28T07:02:05.512Z,7.82
2016-12-28T07:03:20.325Z,7.81
2016-12-28T07:04:34.752Z,7.82
2016-12-28T07:05:49.379Z,7.83
2016-12-28T07:07:03.459Z,7.85
2016-12-28T07:08:18.060Z,7.86
2016-12-28T07:09:32.135Z,7.89
2016-12-28T07:10:46.177Z,7.89
2016-12-28T07:12:00.844Z,7.88
2016-12-28T07:13:15.774Z,7.87
2016-12-28T07:14:30.372Z,7.86
2016-12-28T07:15:44.420Z,7.85
2016-12-28T07:16:59.127Z,7.84
2016-12-28T07:21:11.134Z,7.89
2016-12-28T07:22:26.088Z,7.91
2016-12-28T07:23:40.387Z,7.93
2016-12-28T07:24:54.538Z,7.95
2016-12-28T07:26:08.695Z,7.98
2016-12-28T07:27:37.509Z,7.99
2016-12-28T07:28:51.930Z,8.01
2016-12-28T07:30:06.859Z,8.02
2016-12-28T07:31:21.324Z,8.04
2016-12-28T07:32:36.294Z,8.05
2016-12-28T07:33:50.549Z,8.04
2016-12-28T07:35:05.011Z,8.06
2016-12-28T07:36:19.335Z,8.07
2016-12-28T07:37:33.390Z,8.07
2016-12-28T07:38:47.576Z,8.06
2016-12-28T07:40:02.034Z,8.06
2016-12-28T07:41:16.868Z,8.06
2016-12-28T07:42:30.936Z,8.04
2016-12-28T07:43:45.669Z,8.04
2016-12-28T07:44:59.937Z,8.03
2016-12-28T07:46:16.402Z,8
2016-12-28T07:47:31.072Z,7.99
2016-12-28T07:48:45.123Z,7.97
2016-12-28T07:49:59.251Z,7.95
2016-12-28T07:51:14.117Z,7.93
2016-12-28T07:52:28.154Z,7.93
2016-12-28T07:53:42.448Z,7.91
2016-12-28T07:54:56.578Z,7.88
2016-12-28T07:56:11.356Z,7.85
2016-12-28T07:57:25.476Z,7.83
2016-12-28T07:58:40.606Z,7.84
2016-12-28T07:59:54.910Z,7.84
2016-12-28T08:01:09.533Z,7.85
2016-12-28T08:02:23.726Z,7.85
2016-12-28T08:03:38.188Z,7.85
2016-12-28T08:04:53.310Z,7.86
2016-12-28T08:06:08.409Z,7.88
2016-12-28T08:07:22.821Z,7.89
2016-12-28T08:08:36.909Z,7.91
2016-12-28T08:09:51.415Z,7.92
2016-12-28T08:11:05.707Z,7.93
2016-12-28T08:12:20.056Z,7.93
2016-12-28T08:13:34.148Z,7.95
2016-12-28T08:14:48.186Z,7.95
2016-12-28T08:17:31.425Z,8
2016-12-28T08:18:45.974Z,8.01
2016-12-28T08:20:00.338Z,8.02
2016-12-28T08:21:14.832Z,8.04
2016-12-28T08:22:28.965Z,8.06
2016-12-28T08:23:43.048Z,8.07
2016-12-28T08:24:58.025Z,8.11
2016-12-28T08:26:12.324Z,8.14
2016-12-28T08:27:26.685Z,8.18
2016-12-28T08:28:40.795Z,8.21
2016-12-28T08:29:54.892Z,8.23
2016-12-28T08:31:09.262Z,8.25
2016-12-28T08:32:23.795Z,8.28
2016-12-28T08:33:38.438Z,8.31
2016-12-28T08:34:52.827Z,8.32
2016-12-28T08:36:07.302Z,8.34
2016-12-28T08:37:21.615Z,8.36
2016-12-28T08:38:35.657Z,8.36
2016-12-28T08:40:04.761Z,8.37
2016-12-28T08:41:18.881Z,8.41
2016-12-28T08:42:33.239Z,8.43
2016-12-28T08:43:47.279Z,8.45
2016-12-28T08:45:01.723Z,8.47
2016-12-28T08:46:15.763Z,8.5
2016-12-28T08:47:30.165Z,8.53
2016-12-28T08:48:44.811Z,8.58
2016-12-28T08:49:59.228Z,8.63
2016-12-28T08:51:13.619Z,8.67
2016-12-28T08:52:27.669Z,8.69
2016-12-28T08:53:41.843Z,8.72
2016-12-28T08:54:57.286Z,8.77
2016-12-28T08:56:29.191Z,8.79
2016-12-28T08:57:45.481Z,8.85
2016-12-28T08:59:02.438Z,8.88
2016-12-28T09:00:18.090Z,8.91
2016-12-28T09:01:32.619Z,8.93
2016-12-28T09:02:46.796Z,8.95
2016-12-28T09:04:04.016Z,8.99
2016-12-28T09:05:19.603Z,9.04
2016-12-28T09:06:34.246Z,9.08
2016-12-28T09:07:48.699Z,9.12
2016-12-28T09:09:03.050Z,9.14
2016-12-28T09:10:18.326Z,9.18
2016-12-28T09:11:32.780Z,9.22
2016-12-28T09:15:15.512Z,9.39
2016-12-28T09:16:29.956Z,9.44
2016-12-28T09:17:44.075Z,9.47
2016-12-28T09:18:58.452Z,9.49
2016-12-28T09:20:12.579Z,9.51
2016-12-28T09:21:27.030Z,9.53
2016-12-28T09:22:41.428Z,9.59
2016-12-28T09:23:55.763Z,9.62
2016-12-28T09:25:10.106Z,9.68
2016-12-28T09:26:39.224Z,9.72
2016-12-28T09:27:54.217Z,9.76
2016-12-28T09:29:08.565Z,9.81
2016-12-28T09:30:23.294Z,9.84
2016-12-28T09:31:37.662Z,9.86
2016-12-28T09:32:52.029Z,9.88
2016-12-28T09:34:06.248Z,9.93
2016-12-28T09:35:20.368Z,9.97
2016-12-28T09:36:35.077Z,10.02
2016-12-28T09:37:50.222Z,10.05
2016-12-28T09:39:04.643Z,10.1
2016-12-28T09:40:18.807Z,10.13
2016-12-28T09:41:33.725Z,10.15
2016-12-28T09:42:48.226Z,10.19
2016-12-28T09:44:02.374Z,10.23
2016-12-28T09:45:17.177Z,10.26
2016-12-28T09:46:32.134Z,10.28
2016-12-28T09:47:46.176Z,10.3
2016-12-28T09:49:00.945Z,10.3
2016-12-28T09:50:15.848Z,10.3
2016-12-28T09:51:31.191Z,10.31
2016-12-28T09:52:45.263Z,10.33
2016-12-28T09:53:59.500Z,10.34
2016-12-28T09:55:14.156Z,10.38
2016-12-28T09:56:28.419Z,10.38
2016-12-28T09:57:43.424Z,10.38
2016-12-28T09:58:57.991Z,10.38
2016-12-28T10:00:12.448Z,10.35
2016-12-28T10:01:27.046Z,10.35
2016-12-28T10:02:42.032Z,10.31
2016-12-28T10:03:56.622Z,10.29
2016-12-28T10:05:11.299Z,10.25
2016-12-28T10:06:26.779Z,10.19
2016-12-28T10:07:41.545Z,10.15
2016-12-28T10:08:56.192Z,10.13
2016-12-28T10:10:10.495Z,10.11
2016-12-28T10:11:25.866Z,10.09
2016-12-28T10:12:41.015Z,10.05
2016-12-28T10:13:56.578Z,10.03
2016-12-28T10:15:11.652Z,10.02
2016-12-28T10:16:25.989Z,10.03
2016-12-28T10:17:40.734Z,10.02
2016-12-28T10:18:55.727Z,10.03
2016-12-28T10:20:11.158Z,10.02
2016-12-28T10:21:25.831Z,10.06
2016-12-28T10:22:43.172Z,10.09
2016-12-28T10:24:13.561Z,10.09
2016-12-28T10:25:32.665Z,10.12
2016-12-28T10:26:47.983Z,10.16
2016-12-28T10:28:03.203Z,10.18
2016-12-28T10:29:17.797Z,10.21
2016-12-28T10:30:32.982Z,10.26
2016-12-28T10:31:48.999Z,10.31
2016-12-28T10:33:03.790Z,10.38
2016-12-28T10:34:18.112Z,10.4
2016-12-28T10:35:33.186Z,10.41
2016-12-28T10:36:47.463Z,10.42
2016-12-28T10:38:02.613Z,10.43
2016-12-28T10:39:18.128Z,10.42
2016-12-28T10:40:32.613Z,10.4
2016-12-28T10:41:47.429Z,10.34
2016-12-28T10:43:02.201Z,10.29
2016-12-28T10:44:31.098Z,10.23
2016-12-28T10:45:46.053Z,10.23
2016-12-28T10:47:00.631Z,10.26
2016-12-28T10:48:14.977Z,10.28
2016-12-28T10:49:29.536Z,10.32
2016-12-28T10:50:44.326Z,10.38
2016-12-28T10:51:59.541Z,10.43
2016-12-28T10:53:13.999Z,10.48
2016-12-28T10:54:28.795Z,10.5
2016-12-28T10:55:44.892Z,10.5
2016-12-28T10:56:59.853Z,10.52
2016-12-28T10:58:14.576Z,10.51
2016-12-28T10:59:29.160Z,10.49
2016-12-28T11:00:43.544Z,10.5
2016-12-28T11:01:59.070Z,10.51
2016-12-28T11:03:13.681Z,10.52
2016-12-28T11:04:28.191Z,10.54
2016-12-28T11:05:42.506Z,10.54
2016-12-28T11:06:56.939Z,10.54
2016-12-28T11:08:11.799Z,10.55
2016-12-28T11:09:26.168Z,10.59
2016-12-28T11:10:40.324Z,10.64
2016-12-28T11:11:54.932Z,10.7
2016-12-28T11:13:10.651Z,10.75
2016-12-28T11:14:25.462Z,10.81
2016-12-28T11:15:40.577Z,10.88
2016-12-28T11:16:55.957Z,10.91
2016-12-28T11:18:11.766Z,10.9
2016-12-28T11:19:27.410Z,10.86
2016-12-28T11:20:42.196Z,10.84
2016-12-28T11:21:56.729Z,10.84
2016-12-28T11:23:12.316Z,10.86
2016-12-28T11:24:27.765Z,10.84
2016-12-28T11:25:42.553Z,10.81
2016-12-28T11:26:57.346Z,10.77
2016-12-28T11:28:11.794Z,10.76
2016-12-28T11:29:26.611Z,10.77
2016-12-28T11:30:41.839Z,10.8
2016-12-28T11:31:56.760Z,10.82
2016-12-28T11:33:12.358Z,10.84
2016-12-28T11:34:27.041Z,10.85
2016-12-28T11:35:41.733Z,10.89
2016-12-28T11:36:56.133Z,10.89
2016-12-28T11:38:10.847Z,10.89
2016-12-28T11:39:25.640Z,10.9
2016-12-28T11:40:42.554Z,10.89
2016-12-28T11:41:57.059Z,10.88
2016-12-28T11:43:13.209Z,10.83
2016-12-28T11:44:28.205Z,10.78
2016-12-28T11:45:43.241Z,10.72
2016-12-28T11:46:58.282Z,10.69
2016-12-28T11:48:13.730Z,10.65
2016-12-28T11:49:28.185Z,10.61
2016-12-28T11:50:42.520Z,10.6
2016-12-28T11:51:57.426Z,10.59
2016-12-28T11:53:12.829Z,10.56
2016-12-28T11:54:27.347Z,10.54
2016-12-28T11:55:41.954Z,10.49
2016-12-28T11:56:56.447Z,10.46
2016-12-28T11:58:12.144Z,10.46
2016-12-28T11:59:26.909Z,10.45
2016-12-28T12:00:41.444Z,10.48
2016-12-28T12:01:55.716Z,10.53
2016-12-28T12:03:10.365Z,10.58
2016-12-28T12:04:25.113Z,10.63
2016-12-28T12:05:39.739Z,10.66
2016-12-28T12:06:54.121Z,10.7
2016-12-28T12:08:08.536Z,10.73
2016-12-28T12:09:23.131Z,10.74
2016-12-28T12:10:38.058Z,10.75
2016-12-28T12:11:52.289Z,10.75
2016-12-28T12:13:07.291Z,10.74
2016-12-28T12:14:21.788Z,10.75
2016-12-28T12:15:36.579Z,10.75
2016-12-28T12:16:51.532Z,10.74
2016-12-28T12:18:06.524Z,10.75
2016-12-28T12:19:21.253Z,10.76
2016-12-28T12:20:36.429Z,10.79
2016-12-28T12:21:51.933Z,10.84
2016-12-28T12:23:07.339Z,10.9
2016-12-28T12:24:22.046Z,10.98
2016-12-28T12:25:36.324Z,11.02
2016-12-28T12:26:52.321Z,11.06
2016-12-28T12:28:07.054Z,11.07
2016-12-28T12:29:22.563Z,11.05
2016-12-28T12:30:38.193Z,11.01
2016-12-28T12:31:53.560Z,10.96
2016-12-28T12:33:09.171Z,10.93
2016-12-28T12:34:24.241Z,10.91
2016-12-28T12:35:39.311Z,10.9
2016-12-28T12:36:55.248Z,10.88
2016-12-28T12:38:10.942Z,10.85
2016-12-28T12:39:25.717Z,10.82
2016-12-28T12:40:40.313Z,10.82
2016-12-28T12:41:55.322Z,10.81
2016-12-28T12:43:10.133Z,10.82
2016-12-28T12:44:24.474Z,10.84
2016-12-28T12:45:39.152Z,10.89
2016-12-28T12:46:53.837Z,10.91
2016-12-28T12:48:08.375Z,10.94
2016-12-28T12:49:23.014Z,10.93
2016-12-28T12:50:52.576Z,10.95
2016-12-28T12:52:07.267Z,10.96
2016-12-28T12:53:21.873Z,10.97
2016-12-28T12:54:37.443Z,10.99
2016-12-28T12:55:51.645Z,11.01
2016-12-28T12:57:05.922Z,11.04
2016-12-28T12:58:23.778Z,11.02
2016-12-28T12:59:39.141Z,11
2016-12-28T13:00:54.031Z,10.93
2016-12-28T13:02:08.125Z,10.83
2016-12-28T13:03:22.461Z,10.74
2016-12-28T13:04:37.778Z,10.67
2016-12-28T13:05:53.931Z,10.61
2016-12-28T13:07:22.948Z,10.54
2016-12-28T13:08:37.865Z,10.5
2016-12-28T13:09:52.731Z,10.44
2016-12-28T13:11:07.930Z,10.41
2016-12-28T13:12:23.601Z,10.42
2016-12-28T13:13:38.728Z,10.46
2016-12-28T13:14:54.965Z,10.51
2016-12-28T13:16:11.329Z,10.54
2016-12-28T13:17:26.373Z,10.57
2016-12-28T13:20:26.441Z,10.52
2016-12-28T13:21:43.025Z,10.49
2016-12-28T13:22:58.678Z,10.49
2016-12-28T13:24:12.858Z,10.48
2016-12-28T13:25:28.086Z,10.51
2016-12-28T13:26:42.683Z,10.5
2016-12-28T13:28:42.606Z,10.54
2016-12-28T13:29:57.147Z,10.57
2016-12-28T13:31:11.717Z,10.62
2016-12-28T13:32:26.257Z,10.67
2016-12-28T13:33:40.832Z,10.74
2016-12-28T13:34:55.348Z,10.8
2016-12-28T13:36:09.923Z,10.82
2016-12-28T13:37:25.635Z,10.82
2016-12-28T13:38:40.136Z,10.8
2016-12-28T13:39:54.595Z,10.8
2016-12-28T13:41:09.060Z,10.79
2016-12-28T13:42:23.945Z,10.77
2016-12-28T13:43:38.611Z,10.78
2016-12-28T13:44:53.907Z,10.8
2016-12-28T13:46:10.664Z,10.83
2016-12-28T13:47:24.898Z,10.88
2016-12-28T13:48:39.610Z,10.89
2016-12-28T13:49:55.106Z,10.87
2016-12-28T13:51:10.813Z,10.87
2016-12-28T13:52:25.131Z,10.89
2016-12-28T13:53:39.856Z,10.95
2016-12-28T13:54:54.809Z,10.99
2016-12-28T13:56:09.645Z,11.02
2016-12-28T13:57:24.327Z,11.06
2016-12-28T13:58:39.387Z,11.05
2016-12-28T13:59:54.155Z,11.06
2016-12-28T14:01:10.357Z,11.01
2016-12-28T14:02:24.815Z,10.97
2016-12-28T14:03:39.580Z,10.88
2016-12-28T14:04:53.857Z,10.79
2016-12-28T14:06:08.708Z,10.75
2016-12-28T14:07:23.400Z,10.73
2016-12-28T14:08:38.169Z,10.73
2016-12-28T14:09:53.317Z,10.73
2016-12-28T14:11:07.511Z,10.74
2016-12-28T14:12:22.434Z,10.75
2016-12-28T14:13:37.512Z,10.76
2016-12-28T14:14:51.723Z,10.79
2016-12-28T14:16:06.215Z,10.82
2016-12-28T14:17:24.247Z,10.85
2016-12-28T14:18:53.947Z,10.86
2016-12-28T14:20:09.824Z,10.88
2016-12-28T14:21:24.535Z,10.88
2016-12-28T14:22:39.809Z,10.84
2016-12-28T14:23:53.890Z,10.8
2016-12-28T14:25:08.720Z,10.75
2016-12-28T14:26:24.068Z,10.71
2016-12-28T14:27:39.147Z,10.65
2016-12-28T14:28:54.003Z,10.59
2016-12-28T14:30:08.825Z,10.58
2016-12-28T14:31:24.046Z,10.55
2016-12-28T14:32:38.727Z,10.5
2016-12-28T14:33:53.549Z,10.45
2016-12-28T14:35:08.116Z,10.41
2016-12-28T14:36:22.241Z,10.36
2016-12-28T14:37:37.323Z,10.32
2016-12-28T14:38:51.987Z,10.29
2016-12-28T14:40:06.655Z,10.24
2016-12-28T14:41:20.953Z,10.2
2016-12-28T14:42:35.123Z,10.16
2016-12-28T14:43:49.644Z,10.12
2016-12-28T14:45:04.942Z,10.1
2016-12-28T14:46:19.068Z,10.07
2016-12-28T14:47:33.483Z,10.07
2016-12-28T14:48:47.914Z,10.08
2016-12-28T14:50:02.252Z,10.07
2016-12-28T14:51:16.967Z,10.08
2016-12-28T14:52:31.676Z,10.08
2016-12-28T14:53:45.766Z,10.12
2016-12-28T14:55:00.665Z,10.14
2016-12-28T14:56:15.141Z,10.15
2016-12-28T14:57:30.451Z,10.17
2016-12-28T14:58:44.588Z,10.16
2016-12-28T14:59:59.891Z,10.15
2016-12-28T15:01:14.724Z,10.14
2016-12-28T15:02:28.820Z,10.12
2016-12-28T15:03:44.348Z,10.08
2016-12-28T15:05:13.741Z,10.07
2016-12-28T15:06:28.174Z,10.07
2016-12-28T15:07:43.053Z,10.07
2016-12-28T15:08:58.452Z,10.06
2016-12-28T15:10:12.724Z,10.04
2016-12-28T15:11:27.877Z,10.02
2016-12-28T15:12:42.419Z,10
2016-12-28T15:13:57.803Z,10.02
2016-12-28T15:15:12.827Z,10.02
2016-12-28T15:16:28.142Z,10.04
2016-12-28T15:17:42.210Z,10.04
2016-12-28T15:18:56.756Z,10.07
2016-12-28T15:20:10.863Z,10.08
2016-12-28T15:21:26.608Z,10.11
2016-12-28T15:22:41.310Z,10.13
2016-12-28T15:23:55.736Z,10.15
2016-12-28T15:25:09.991Z,10.18
2016-12-28T15:26:25.386Z,10.22
2016-12-28T15:27:39.835Z,10.23
2016-12-28T15:28:55.697Z,10.24
2016-12-28T15:30:10.980Z,10.22
2016-12-28T15:31:25.922Z,10.19
2016-12-28T15:32:41.179Z,10.14
2016-12-28T15:33:56.259Z,10.09
2016-12-28T15:35:12.953Z,10
2016-12-28T15:36:27.684Z,9.95
2016-12-28T15:37:42.224Z,9.91
2016-12-28T15:38:57.299Z,9.88
2016-12-28T15:40:11.808Z,9.86
2016-12-28T15:41:26.666Z,9.84
2016-12-28T15:42:41.331Z,9.85
2016-12-28T15:43:55.628Z,9.82
2016-12-28T15:45:10.342Z,9.79
2016-12-28T15:46:24.710Z,9.75
2016-12-28T15:47:39.229Z,9.72
2016-12-28T15:48:53.464Z,9.68
2016-12-28T15:50:08.171Z,9.65
2016-12-28T15:51:23.579Z,9.62
2016-12-28T15:52:52.682Z,9.6
2016-12-28T15:54:06.802Z,9.6
2016-12-28T15:55:21.414Z,9.61
2016-12-28T15:56:35.738Z,9.62
2016-12-28T15:57:50.763Z,9.64
2016-12-28T15:59:05.267Z,9.65
2016-12-28T16:00:19.449Z,9.68
2016-12-28T16:01:34.279Z,9.68
2016-12-28T16:02:48.428Z,9.7
2016-12-28T16:04:03.161Z,9.72
2016-12-28T16:05:17.906Z,9.73
2016-12-28T16:06:32.391Z,9.7
2016-12-28T16:07:47.446Z,9.7
2016-12-28T16:09:02.219Z,9.67
2016-12-28T16:10:18.257Z,9.64
2016-12-28T16:11:32.677Z,9.62
2016-12-28T16:12:47.311Z,9.62
2016-12-28T16:14:01.372Z,9.64
2016-12-28T16:15:15.479Z,9.63
2016-12-28T16:16:30.322Z,9.62
2016-12-28T16:17:45.240Z,9.6
2016-12-28T16:19:00.550Z,9.6
2016-12-28T16:20:15.119Z,9.59
2016-12-28T16:21:30.116Z,9.59
2016-12-28T16:22:44.755Z,9.58
2016-12-28T16:23:59.150Z,9.58
2016-12-28T16:25:14.466Z,9.59
2016-12-28T16:26:29.135Z,9.6
2016-12-28T16:27:43.400Z,9.61
2016-12-28T16:28:57.829Z,9.61
2016-12-28T16:30:12.186Z,9.61
2016-12-28T16:31:26.592Z,9.6
2016-12-28T16:32:40.770Z,9.61
2016-12-28T16:33:55.808Z,9.58
2016-12-28T16:35:10.278Z,9.59
2016-12-28T16:36:26.069Z,9.58
2016-12-28T16:37:40.496Z,9.58
2016-12-28T16:38:55.552Z,9.6
2016-12-28T16:40:10.769Z,9.62
2016-12-28T16:41:26.036Z,9.62